sensor_id;sensor_type;location;lat;lon;timestamp;pressure;altitude;pressure_sealevel;temperature;humidity
72395;BME280;60384;48.152;11.614;2023-03-05T00:01:38;95871.16;;;1.98;64.56
72395;BME280;60384;48.152;11.614;2023-03-05T00:04:39;95873.81;;;1.98;64.66
72395;BME280;60384;48.152;11.614;2023-03-05T00:07:41;95875.38;;;1.99;64.71
72395;BME280;60384;48.152;11.614;2023-03-05T00:10:43;95876.69;;;2.01;64.51
72395;BME280;60384;48.152;11.614;2023-03-05T00:13:46;95864.31;;;2.02;64.30
72395;BME280;60384;48.152;11.614;2023-03-05T00:16:49;95869.84;;;2.05;64.34
72395;BME280;60384;48.152;11.614;2023-03-05T00:19:50;95863.53;;;2.06;64.50
72395;BME280;60384;48.152;11.614;2023-03-05T00:22:52;95859.06;;;2.07;64.48
72395;BME280;60384;48.152;11.614;2023-03-05T00:25:54;95853.00;;;2.06;64.37
72395;BME280;60384;48.152;11.614;2023-03-05T00:28:57;95856.97;;;2.04;64.51
72395;BME280;60384;48.152;11.614;2023-03-05T00:31:59;95856.41;;;2.02;64.45
72395;BME280;60384;48.152;11.614;2023-03-05T00:35:01;95855.88;;;2.00;64.52
72395;BME280;60384;48.152;11.614;2023-03-05T00:38:03;95852.97;;;1.96;64.49
72395;BME280;60384;48.152;11.614;2023-03-05T00:41:04;95853.75;;;1.92;64.65
72395;BME280;60384;48.152;11.614;2023-03-05T00:44:08;95841.09;;;1.89;64.49
72395;BME280;60384;48.152;11.614;2023-03-05T00:47:09;95837.63;;;1.83;64.57
72395;BME280;60384;48.152;11.614;2023-03-05T00:50:11;95832.09;;;1.80;64.49
72395;BME280;60384;48.152;11.614;2023-03-05T00:53:13;95837.63;;;1.78;64.63
72395;BME280;60384;48.152;11.614;2023-03-05T00:56:15;95830.75;;;1.77;64.62
72395;BME280;60384;48.152;11.614;2023-03-05T00:59:18;95831.56;;;1.78;64.72
72395;BME280;60384;48.152;11.614;2023-03-05T01:02:20;95827.09;;;1.78;64.67
72395;BME280;60384;48.152;11.614;2023-03-05T01:05:22;95826.84;;;1.80;64.38
72395;BME280;60384;48.152;11.614;2023-03-05T01:08:24;95822.63;;;1.79;64.60
72395;BME280;60384;48.152;11.614;2023-03-05T01:11:26;95821.81;;;1.78;64.70
72395;BME280;60384;48.152;11.614;2023-03-05T01:14:29;95814.72;;;1.79;64.63
72395;BME280;60384;48.152;11.614;2023-03-05T01:17:31;95808.41;;;1.80;64.68
72395;BME280;60384;48.152;11.614;2023-03-05T01:20:34;95815.25;;;1.81;64.75
72395;BME280;60384;48.152;11.614;2023-03-05T01:23:36;95813.94;;;1.83;64.69
72395;BME280;60384;48.152;11.614;2023-03-05T01:26:37;95814.47;;;1.85;64.50
72395;BME280;60384;48.152;11.614;2023-03-05T01:29:41;95803.16;;;1.85;64.62
72395;BME280;60384;48.152;11.614;2023-03-05T01:32:42;95798.69;;;1.85;64.20
72395;BME280;60384;48.152;11.614;2023-03-05T01:35:45;95792.13;;;1.88;64.57
72395;BME280;60384;48.152;11.614;2023-03-05T01:38:47;95788.16;;;1.90;64.50
72395;BME280;60384;48.152;11.614;2023-03-05T01:41:49;95786.56;;;1.89;64.42
72395;BME280;60384;48.152;11.614;2023-03-05T01:45:06;95779.19;;;1.86;64.76
72395;BME280;60384;48.152;11.614;2023-03-05T01:48:10;95780.78;;;1.87;64.58
72395;BME280;60384;48.152;11.614;2023-03-05T01:51:16;95781.59;;;1.88;64.49
72395;BME280;60384;48.152;11.614;2023-03-05T01:54:21;95780.25;;;1.85;64.48
72395;BME280;60384;48.152;11.614;2023-03-05T01:57:27;95774.19;;;1.85;64.43
72395;BME280;60384;48.152;11.614;2023-03-05T02:00:35;95777.34;;;1.87;64.47
72395;BME280;60384;48.152;11.614;2023-03-05T02:03:39;95777.88;;;1.89;64.48
72395;BME280;60384;48.152;11.614;2023-03-05T02:06:42;95779.22;;;1.91;64.40
72395;BME280;60384;48.152;11.614;2023-03-05T02:09:45;95773.94;;;1.91;64.46
72395;BME280;60384;48.152;11.614;2023-03-05T02:12:48;95767.88;;;1.91;64.67
72395;BME280;60384;48.152;11.614;2023-03-05T02:15:53;95766.59;;;1.93;64.50
72395;BME280;60384;48.152;11.614;2023-03-05T02:18:56;95768.16;;;1.94;64.36
72395;BME280;60384;48.152;11.614;2023-03-05T02:21:59;95757.63;;;1.94;64.37
72395;BME280;60384;48.152;11.614;2023-03-05T02:25:01;95768.16;;;1.94;64.42
72395;BME280;60384;48.152;11.614;2023-03-05T02:28:07;95764.72;;;1.94;64.54
72395;BME280;60384;48.152;11.614;2023-03-05T02:31:12;95755.75;;;1.90;63.99
72395;BME280;60384;48.152;11.614;2023-03-05T02:34:14;95754.97;;;1.89;64.50
72395;BME280;60384;48.152;11.614;2023-03-05T02:37:18;95751.28;;;1.90;64.34
72395;BME280;60384;48.152;11.614;2023-03-05T02:40:20;95748.41;;;1.92;64.35
72395;BME280;60384;48.152;11.614;2023-03-05T02:43:21;95737.06;;;1.91;64.57
72395;BME280;60384;48.152;11.614;2023-03-05T02:46:23;95733.41;;;1.92;64.41
72395;BME280;60384;48.152;11.614;2023-03-05T02:49:26;95725.22;;;1.94;64.30
72395;BME280;60384;48.152;11.614;2023-03-05T02:52:30;95725.50;;;1.92;64.22
72395;BME280;60384;48.152;11.614;2023-03-05T02:55:33;95722.06;;;1.92;63.99
72395;BME280;60384;48.152;11.614;2023-03-05T02:58:35;95705.22;;;1.93;64.47
72395;BME280;60384;48.152;11.614;2023-03-05T03:01:37;95716.00;;;1.91;64.53
72395;BME280;60384;48.152;11.614;2023-03-05T03:04:39;95705.72;;;1.90;64.08
72395;BME280;60384;48.152;11.614;2023-03-05T03:07:42;95700.72;;;1.88;64.69
72395;BME280;60384;48.152;11.614;2023-03-05T03:10:44;95703.63;;;1.92;64.64
72395;BME280;60384;48.152;11.614;2023-03-05T03:13:46;95695.47;;;1.93;64.28
72395;BME280;60384;48.152;11.614;2023-03-05T03:16:48;95687.56;;;1.93;64.17
72395;BME280;60384;48.152;11.614;2023-03-05T03:19:50;95690.97;;;1.94;64.46
72395;BME280;60384;48.152;11.614;2023-03-05T03:22:53;95684.94;;;1.93;64.46
72395;BME280;60384;48.152;11.614;2023-03-05T03:25:55;95686.50;;;1.94;64.41
72395;BME280;60384;48.152;11.614;2023-03-05T03:28:57;95683.63;;;1.96;64.59
72395;BME280;60384;48.152;11.614;2023-03-05T03:31:58;95684.94;;;1.98;64.52
72395;BME280;60384;48.152;11.614;2023-03-05T03:35:01;95682.03;;;2.00;64.30
72395;BME280;60384;48.152;11.614;2023-03-05T03:38:04;95679.94;;;2.02;64.34
72395;BME280;60384;48.152;11.614;2023-03-05T03:41:06;95683.09;;;2.04;64.10
72395;BME280;60384;48.152;11.614;2023-03-05T03:44:09;95677.84;;;2.04;64.66
72395;BME280;60384;48.152;11.614;2023-03-05T03:47:11;95677.03;;;2.03;64.42
72395;BME280;60384;48.152;11.614;2023-03-05T03:50:13;95678.88;;;2.03;64.45
72395;BME280;60384;48.152;11.614;2023-03-05T03:53:16;95674.16;;;2.05;64.14
72395;BME280;60384;48.152;11.614;2023-03-05T03:56:18;95669.94;;;2.09;64.61
72395;BME280;60384;48.152;11.614;2023-03-05T03:59:20;95664.41;;;2.11;64.27
72395;BME280;60384;48.152;11.614;2023-03-05T04:02:22;95668.88;;;2.10;64.43
72395;BME280;60384;48.152;11.614;2023-03-05T04:05:24;95658.88;;;2.12;64.42
72395;BME280;60384;48.152;11.614;2023-03-05T04:08:27;95664.41;;;2.16;64.39
72395;BME280;60384;48.152;11.614;2023-03-05T04:11:29;95665.72;;;2.18;64.67
72395;BME280;60384;48.152;11.614;2023-03-05T04:14:31;95658.34;;;2.20;64.28
72395;BME280;60384;48.152;11.614;2023-03-05T04:17:33;95653.31;;;2.24;64.30
72395;BME280;60384;48.152;11.614;2023-03-05T04:20:35;95657.81;;;2.28;64.54
72395;BME280;60384;48.152;11.614;2023-03-05T04:23:39;95638.59;;;2.28;64.05
72395;BME280;60384;48.152;11.614;2023-03-05T04:26:41;95640.16;;;2.29;64.37
72395;BME280;60384;48.152;11.614;2023-03-05T04:29:43;95645.16;;;2.30;64.38
72395;BME280;60384;48.152;11.614;2023-03-05T04:32:45;95649.13;;;2.33;64.31
72395;BME280;60384;48.152;11.614;2023-03-05T04:35:47;95641.22;;;2.33;64.13
72395;BME280;60384;48.152;11.614;2023-03-05T04:38:50;95630.69;;;2.33;64.26
72395;BME280;60384;48.152;11.614;2023-03-05T04:41:52;95629.59;;;2.34;64.15
72395;BME280;60384;48.152;11.614;2023-03-05T04:44:54;95628.28;;;2.36;64.30
72395;BME280;60384;48.152;11.614;2023-03-05T04:47:56;95626.19;;;2.38;64.48
72395;BME280;60384;48.152;11.614;2023-03-05T04:50:58;95626.44;;;2.42;64.33
72395;BME280;60384;48.152;11.614;2023-03-05T04:54:01;95622.22;;;2.46;64.07
72395;BME280;60384;48.152;11.614;2023-03-05T04:57:03;95619.06;;;2.49;64.17
72395;BME280;60384;48.152;11.614;2023-03-05T05:00:08;95622.50;;;2.49;64.12
72395;BME280;60384;48.152;11.614;2023-03-05T05:03:13;95615.88;;;2.52;64.16
72395;BME280;60384;48.152;11.614;2023-03-05T05:06:15;95612.44;;;2.52;64.02
72395;BME280;60384;48.152;11.614;2023-03-05T05:09:18;95609.81;;;2.52;64.28
72395;BME280;60384;48.152;11.614;2023-03-05T05:12:20;95613.25;;;2.52;64.29
72395;BME280;60384;48.152;11.614;2023-03-05T05:15:22;95613.78;;;2.54;64.26
72395;BME280;60384;48.152;11.614;2023-03-05T05:18:25;95605.06;;;2.54;64.28
72395;BME280;60384;48.152;11.614;2023-03-05T05:21:27;95608.25;;;2.56;64.15
72395;BME280;60384;48.152;11.614;2023-03-05T05:24:30;95602.69;;;2.57;64.37
72395;BME280;60384;48.152;11.614;2023-03-05T05:27:32;95610.34;;;2.59;64.23
72395;BME280;60384;48.152;11.614;2023-03-05T05:30:34;95607.69;;;2.59;64.33
72395;BME280;60384;48.152;11.614;2023-03-05T05:33:39;95604.25;;;2.58;64.29
72395;BME280;60384;48.152;11.614;2023-03-05T05:36:41;95606.41;;;2.56;64.22
72395;BME280;60384;48.152;11.614;2023-03-05T05:39:44;95608.75;;;2.58;64.28
72395;BME280;60384;48.152;11.614;2023-03-05T05:42:49;95608.50;;;2.59;64.21
72395;BME280;60384;48.152;11.614;2023-03-05T05:45:51;95612.44;;;2.62;64.45
72395;BME280;60384;48.152;11.614;2023-03-05T05:48:53;95602.94;;;2.61;64.17
72395;BME280;60384;48.152;11.614;2023-03-05T05:51:55;95619.03;;;2.64;64.20
72395;BME280;60384;48.152;11.614;2023-03-05T05:54:58;95610.06;;;2.65;63.96
72395;BME280;60384;48.152;11.614;2023-03-05T05:58:00;95615.34;;;2.65;64.41
72395;BME280;60384;48.152;11.614;2023-03-05T06:01:02;95613.22;;;2.67;64.57
72395;BME280;60384;48.152;11.614;2023-03-05T06:04:11;95615.88;;;2.67;64.24
72395;BME280;60384;48.152;11.614;2023-03-05T06:07:13;95618.22;;;2.69;64.34
72395;BME280;60384;48.152;11.614;2023-03-05T06:10:16;95616.91;;;2.66;64.30
72395;BME280;60384;48.152;11.614;2023-03-05T06:13:18;95613.50;;;2.66;64.53
72395;BME280;60384;48.152;11.614;2023-03-05T06:16:22;95610.31;;;2.69;64.07
72395;BME280;60384;48.152;11.614;2023-03-05T06:19:24;95616.63;;;2.73;64.15
72395;BME280;60384;48.152;11.614;2023-03-05T06:22:26;95610.81;;;2.76;64.38
72395;BME280;60384;48.152;11.614;2023-03-05T06:25:30;95614.78;;;2.78;64.16
72395;BME280;60384;48.152;11.614;2023-03-05T06:28:32;95616.34;;;2.79;64.03
72395;BME280;60384;48.152;11.614;2023-03-05T06:31:34;95617.91;;;2.80;63.84
72395;BME280;60384;48.152;11.614;2023-03-05T06:34:36;95608.16;;;2.81;63.98
72395;BME280;60384;48.152;11.614;2023-03-05T06:37:38;95607.63;;;2.84;64.25
72395;BME280;60384;48.152;11.614;2023-03-05T06:40:41;95610.78;;;2.86;63.98
72395;BME280;60384;48.152;11.614;2023-03-05T06:43:44;95607.34;;;2.85;64.35
72395;BME280;60384;48.152;11.614;2023-03-05T06:46:46;95607.91;;;2.82;64.09
72395;BME280;60384;48.152;11.614;2023-03-05T06:49:48;95608.16;;;2.81;64.02
72395;BME280;60384;48.152;11.614;2023-03-05T06:52:50;95606.06;;;2.83;64.04
72395;BME280;60384;48.152;11.614;2023-03-05T06:55:53;95603.91;;;2.85;64.28
72395;BME280;60384;48.152;11.614;2023-03-05T06:58:55;95599.44;;;2.85;64.57
72395;BME280;60384;48.152;11.614;2023-03-05T07:01:57;95601.81;;;2.87;63.99
72395;BME280;60384;48.152;11.614;2023-03-05T07:04:59;95599.72;;;2.89;64.25
72395;BME280;60384;48.152;11.614;2023-03-05T07:08:01;95603.38;;;2.93;64.25
72395;BME280;60384;48.152;11.614;2023-03-05T07:11:08;95603.13;;;2.95;63.93
72395;BME280;60384;48.152;11.614;2023-03-05T07:14:10;95599.69;;;2.94;64.19
72395;BME280;60384;48.152;11.614;2023-03-05T07:17:11;95604.69;;;2.90;64.00
72395;BME280;60384;48.152;11.614;2023-03-05T07:20:15;95603.13;;;2.89;63.98
72395;BME280;60384;48.152;11.614;2023-03-05T07:23:16;95599.72;;;2.89;63.80
72395;BME280;60384;48.152;11.614;2023-03-05T07:26:21;95603.94;;;2.90;64.52
72395;BME280;60384;48.152;11.614;2023-03-05T07:29:23;95596.50;;;2.92;64.50
72395;BME280;60384;48.152;11.614;2023-03-05T07:32:25;95599.41;;;2.96;64.19
72395;BME280;60384;48.152;11.614;2023-03-05T07:35:27;95593.88;;;2.92;64.26
72395;BME280;60384;48.152;11.614;2023-03-05T07:38:29;95593.63;;;2.88;64.38
72395;BME280;60384;48.152;11.614;2023-03-05T07:41:33;95592.84;;;2.88;64.08
72395;BME280;60384;48.152;11.614;2023-03-05T07:44:35;95590.75;;;2.90;64.08
72395;BME280;60384;48.152;11.614;2023-03-05T07:47:38;95589.13;;;2.94;64.41
72395;BME280;60384;48.152;11.614;2023-03-05T07:50:40;95589.91;;;3.00;63.91
72395;BME280;60384;48.152;11.614;2023-03-05T07:53:42;95590.66;;;3.05;63.85
72395;BME280;60384;48.152;11.614;2023-03-05T07:56:45;95587.47;;;3.08;63.61
72395;BME280;60384;48.152;11.614;2023-03-05T07:59:48;95581.13;;;3.09;64.11
72395;BME280;60384;48.152;11.614;2023-03-05T08:02:49;95583.53;;;3.11;63.83
72395;BME280;60384;48.152;11.614;2023-03-05T08:05:51;95578.22;;;3.16;63.54
72395;BME280;60384;48.152;11.614;2023-03-05T08:08:53;95577.69;;;3.19;64.00
72395;BME280;60384;48.152;11.614;2023-03-05T08:11:57;95572.66;;;3.22;63.49
72395;BME280;60384;48.152;11.614;2023-03-05T08:14:58;95571.28;;;3.25;63.45
72395;BME280;60384;48.152;11.614;2023-03-05T08:18:00;95574.19;;;3.28;63.73
72395;BME280;60384;48.152;11.614;2023-03-05T08:21:03;95568.66;;;3.30;63.97
72395;BME280;60384;48.152;11.614;2023-03-05T08:24:07;95581.03;;;3.35;63.37
72395;BME280;60384;48.152;11.614;2023-03-05T08:27:10;95571.25;;;3.35;64.18
72395;BME280;60384;48.152;11.614;2023-03-05T08:30:14;95566.22;;;3.39;63.73
72395;BME280;60384;48.152;11.614;2023-03-05T08:33:16;95568.31;;;3.42;63.34
72395;BME280;60384;48.152;11.614;2023-03-05T08:36:18;95564.06;;;3.46;63.71
72395;BME280;60384;48.152;11.614;2023-03-05T08:39:20;95566.94;;;3.49;63.84
72395;BME280;60384;48.152;11.614;2023-03-05T08:42:23;95569.84;;;3.53;63.60
72395;BME280;60384;48.152;11.614;2023-03-05T08:45:25;95569.31;;;3.51;63.42
72395;BME280;60384;48.152;11.614;2023-03-05T08:48:30;95567.97;;;3.53;63.17
72395;BME280;60384;48.152;11.614;2023-03-05T08:51:33;95566.09;;;3.54;63.92
72395;BME280;60384;48.152;11.614;2023-03-05T08:54:36;95560.78;;;3.59;63.50
72395;BME280;60384;48.152;11.614;2023-03-05T08:57:41;95547.56;;;3.64;63.40
72395;BME280;60384;48.152;11.614;2023-03-05T09:00:43;95544.09;;;3.68;63.58
72395;BME280;60384;48.152;11.614;2023-03-05T09:03:44;95550.13;;;3.74;63.90
72395;BME280;60384;48.152;11.614;2023-03-05T09:06:46;95550.88;;;3.80;63.21
72395;BME280;60384;48.152;11.614;2023-03-05T09:09:48;95541.06;;;3.85;63.62
72395;BME280;60384;48.152;11.614;2023-03-05T09:12:51;95541.25;;;3.94;63.63
72395;BME280;60384;48.152;11.614;2023-03-05T09:15:53;95547.28;;;3.99;63.23
72395;BME280;60384;48.152;11.614;2023-03-05T09:18:56;95543.56;;;4.00;63.29
72395;BME280;60384;48.152;11.614;2023-03-05T09:21:59;95539.34;;;3.99;62.88
72395;BME280;60384;48.152;11.614;2023-03-05T09:25:00;95532.22;;;4.00;63.23
72395;BME280;60384;48.152;11.614;2023-03-05T09:28:04;95529.56;;;4.00;63.73
72395;BME280;60384;48.152;11.614;2023-03-05T09:31:07;95533.00;;;4.00;63.43
72395;BME280;60384;48.152;11.614;2023-03-05T09:34:10;95539.66;;;3.98;63.40
72395;BME280;60384;48.152;11.614;2023-03-05T09:37:12;95526.94;;;4.00;63.79
72395;BME280;60384;48.152;11.614;2023-03-05T09:40:16;95536.44;;;4.01;63.04
72395;BME280;60384;48.152;11.614;2023-03-05T09:43:28;95529.34;;;3.96;63.98
72395;BME280;60384;48.152;11.614;2023-03-05T09:46:43;95534.84;;;4.00;63.84
72395;BME280;60384;48.152;11.614;2023-03-05T09:49:55;95531.41;;;3.99;63.29
72395;BME280;60384;48.152;11.614;2023-03-05T09:53:02;95533.84;;;3.96;63.37
72395;BME280;60384;48.152;11.614;2023-03-05T09:56:10;95530.41;;;3.95;63.12
72395;BME280;60384;48.152;11.614;2023-03-05T09:59:32;95521.69;;;3.95;63.80
72395;BME280;60384;48.152;11.614;2023-03-05T10:02:44;95523.28;;;3.96;63.44
72395;BME280;60384;48.152;11.614;2023-03-05T10:05:55;95523.50;;;3.99;63.61
72395;BME280;60384;48.152;11.614;2023-03-05T10:09:03;95519.31;;;3.93;63.22
72395;BME280;60384;48.152;11.614;2023-03-05T10:12:13;95519.03;;;3.95;63.79
72395;BME280;60384;48.152;11.614;2023-03-05T10:15:23;95513.97;;;4.03;63.20
72395;BME280;60384;48.152;11.614;2023-03-05T10:18:31;95515.19;;;4.11;63.44
72395;BME280;60384;48.152;11.614;2023-03-05T10:21:38;95512.75;;;4.20;63.32
72395;BME280;60384;48.152;11.614;2023-03-05T10:24:48;95510.66;;;4.16;63.51
72395;BME280;60384;48.152;11.614;2023-03-05T10:27:56;95499.84;;;4.13;63.82
72395;BME280;60384;48.152;11.614;2023-03-05T10:31:13;95503.81;;;4.15;63.23
72395;BME280;60384;48.152;11.614;2023-03-05T10:34:36;95498.97;;;4.23;63.28
72395;BME280;60384;48.152;11.614;2023-03-05T10:37:55;95494.19;;;4.25;63.54
72395;BME280;60384;48.152;11.614;2023-03-05T10:41:06;95496.56;;;4.26;63.77
72395;BME280;60384;48.152;11.614;2023-03-05T10:44:11;95482.75;;;4.29;63.01
72395;BME280;60384;48.152;11.614;2023-03-05T10:47:24;95486.94;;;4.35;63.12
72395;BME280;60384;48.152;11.614;2023-03-05T10:50:29;95476.56;;;4.39;63.34
72395;BME280;60384;48.152;11.614;2023-03-05T10:53:36;95474.78;;;4.34;62.92
72395;BME280;60384;48.152;11.614;2023-03-05T10:56:42;95463.97;;;4.31;63.40
72395;BME280;60384;48.152;11.614;2023-03-05T10:59:47;95463.13;;;4.35;63.37
72395;BME280;60384;48.152;11.614;2023-03-05T11:02:57;95457.25;;;4.43;63.63
72395;BME280;60384;48.152;11.614;2023-03-05T11:06:00;95448.50;;;4.43;63.33
72395;BME280;60384;48.152;11.614;2023-03-05T11:09:17;95456.16;;;4.44;63.78
72395;BME280;60384;48.152;11.614;2023-03-05T11:12:22;95452.00;;;4.38;63.43
72395;BME280;60384;48.152;11.614;2023-03-05T11:15:29;95451.78;;;4.35;63.53
72395;BME280;60384;48.152;11.614;2023-03-05T11:18:32;95446.00;;;4.33;63.07
72395;BME280;60384;48.152;11.614;2023-03-05T11:21:34;95442.56;;;4.32;63.56
72395;BME280;60384;48.152;11.614;2023-03-05T11:24:36;95435.34;;;4.38;63.76
72395;BME280;60384;48.152;11.614;2023-03-05T11:27:43;95434.78;;;4.41;63.55
72395;BME280;60384;48.152;11.614;2023-03-05T11:30:55;95433.66;;;4.47;63.28
72395;BME280;60384;48.152;11.614;2023-03-05T11:34:01;95430.16;;;4.51;63.26
72395;BME280;60384;48.152;11.614;2023-03-05T11:37:05;95429.34;;;4.51;63.35
72395;BME280;60384;48.152;11.614;2023-03-05T11:40:17;95422.28;;;4.46;63.87
72395;BME280;60384;48.152;11.614;2023-03-05T11:43:21;95427.03;;;4.49;63.36
72395;BME280;60384;48.152;11.614;2023-03-05T11:46:24;95420.16;;;4.48;63.61
72395;BME280;60384;48.152;11.614;2023-03-05T11:49:28;95406.63;;;4.50;63.75
72395;BME280;60384;48.152;11.614;2023-03-05T11:52:35;95408.78;;;4.48;63.31
72395;BME280;60384;48.152;11.614;2023-03-05T11:55:44;95397.41;;;4.47;63.36
72395;BME280;60384;48.152;11.614;2023-03-05T11:58:50;95399.78;;;4.49;63.87
72395;BME280;60384;48.152;11.614;2023-03-05T12:01:55;95395.50;;;4.53;63.29
72395;BME280;60384;48.152;11.614;2023-03-05T12:04:59;95394.63;;;4.57;64.04
72395;BME280;60384;48.152;11.614;2023-03-05T12:08:03;95385.03;;;4.62;63.65
72395;BME280;60384;48.152;11.614;2023-03-05T12:11:13;95382.06;;;4.68;63.43
72395;BME280;60384;48.152;11.614;2023-03-05T12:14:21;95373.03;;;4.69;63.80
72395;BME280;60384;48.152;11.614;2023-03-05T12:17:29;95370.59;;;4.73;63.07
72395;BME280;60384;48.152;11.614;2023-03-05T12:20:37;95368.69;;;4.78;63.11
72395;BME280;60384;48.152;11.614;2023-03-05T12:23:44;95362.75;;;4.86;63.11
72395;BME280;60384;48.152;11.614;2023-03-05T12:27:04;95352.78;;;4.97;63.38
72395;BME280;60384;48.152;11.614;2023-03-05T12:30:34;95349.41;;;5.10;63.12
72395;BME280;60384;48.152;11.614;2023-03-05T12:33:50;95347.03;;;5.09;62.63
72395;BME280;60384;48.152;11.614;2023-03-05T12:36:53;95348.13;;;5.08;62.96
72395;BME280;60384;48.152;11.614;2023-03-05T12:39:57;95345.47;;;5.08;63.15
72395;BME280;60384;48.152;11.614;2023-03-05T12:43:01;95347.91;;;5.04;63.23
72395;BME280;60384;48.152;11.614;2023-03-05T12:46:22;95338.75;;;4.96;63.00
72395;BME280;60384;48.152;11.614;2023-03-05T12:49:36;95332.47;;;4.92;63.56
72395;BME280;60384;48.152;11.614;2023-03-05T12:52:41;95328.84;;;4.88;63.25
72395;BME280;60384;48.152;11.614;2023-03-05T12:55:55;95327.47;;;4.91;63.01
72395;BME280;60384;48.152;11.614;2023-03-05T12:58:59;95321.31;;;4.95;63.50
72395;BME280;60384;48.152;11.614;2023-03-05T13:02:15;95308.50;;;5.03;63.35
72395;BME280;60384;48.152;11.614;2023-03-05T13:05:23;95317.06;;;5.13;62.84
72395;BME280;60384;48.152;11.614;2023-03-05T13:08:28;95307.56;;;5.12;62.72
72395;BME280;60384;48.152;11.614;2023-03-05T13:11:35;95310.69;;;5.14;62.98
72395;BME280;60384;48.152;11.614;2023-03-05T13:14:40;95304.13;;;5.12;62.99
72395;BME280;60384;48.152;11.614;2023-03-05T13:17:50;95304.50;;;5.19;62.71
72395;BME280;60384;48.152;11.614;2023-03-05T13:21:01;95303.06;;;5.26;62.88
72395;BME280;60384;48.152;11.614;2023-03-05T13:24:15;95310.34;;;5.34;62.71
72395;BME280;60384;48.152;11.614;2023-03-05T13:27:19;95300.56;;;5.62;62.23
72395;BME280;60384;48.152;11.614;2023-03-05T13:30:23;95293.91;;;6.06;61.66
72395;BME280;60384;48.152;11.614;2023-03-05T13:33:26;95289.72;;;6.27;61.77
72395;BME280;60384;48.152;11.614;2023-03-05T13:36:29;95295.44;;;6.34;61.43
72395;BME280;60384;48.152;11.614;2023-03-05T13:39:34;95296.88;;;6.40;61.39
72395;BME280;60384;48.152;11.614;2023-03-05T13:42:39;95299.38;;;6.37;62.26
72395;BME280;60384;48.152;11.614;2023-03-05T13:45:40;95292.78;;;6.34;61.48
72395;BME280;60384;48.152;11.614;2023-03-05T13:48:43;95288.75;;;6.37;62.02
72395;BME280;60384;48.152;11.614;2023-03-05T13:51:47;95286.69;;;6.34;62.21
72395;BME280;60384;48.152;11.614;2023-03-05T13:54:50;95282.94;;;6.35;61.97
72395;BME280;60384;48.152;11.614;2023-03-05T13:57:52;95273.13;;;6.35;61.63
72395;BME280;60384;48.152;11.614;2023-03-05T14:01:02;95271.09;;;6.32;61.96
72395;BME280;60384;48.152;11.614;2023-03-05T14:04:07;95271.50;;;6.12;62.43
72395;BME280;60384;48.152;11.614;2023-03-05T14:07:27;95264.97;;;5.96;62.27
72395;BME280;60384;48.152;11.614;2023-03-05T14:10:34;95267.50;;;5.87;63.09
72395;BME280;60384;48.152;11.614;2023-03-05T14:13:37;95265.25;;;5.80;62.80
72395;BME280;60384;48.152;11.614;2023-03-05T14:16:38;95271.53;;;5.85;62.96
72395;BME280;60384;48.152;11.614;2023-03-05T14:19:40;95268.38;;;5.82;62.53
72395;BME280;60384;48.152;11.614;2023-03-05T14:22:43;95256.00;;;5.78;63.01
72395;BME280;60384;48.152;11.614;2023-03-05T14:25:47;95253.75;;;5.71;62.86
72395;BME280;60384;48.152;11.614;2023-03-05T14:28:50;95248.84;;;5.65;62.96
72395;BME280;60384;48.152;11.614;2023-03-05T14:31:54;95251.69;;;5.55;63.00
72395;BME280;60384;48.152;11.614;2023-03-05T14:34:57;95246.59;;;5.45;63.27
72395;BME280;60384;48.152;11.614;2023-03-05T14:37:59;95247.28;;;5.36;63.31
72395;BME280;60384;48.152;11.614;2023-03-05T14:41:32;95240.22;;;5.32;63.29
72395;BME280;60384;48.152;11.614;2023-03-05T14:44:35;95229.13;;;5.30;63.29
72395;BME280;60384;48.152;11.614;2023-03-05T14:47:37;95234.03;;;5.36;63.34
72395;BME280;60384;48.152;11.614;2023-03-05T14:50:42;95234.53;;;5.38;63.50
72395;BME280;60384;48.152;11.614;2023-03-05T14:53:45;95218.47;;;5.35;63.44
72395;BME280;60384;48.152;11.614;2023-03-05T14:56:51;95219.03;;;5.32;63.42
72395;BME280;60384;48.152;11.614;2023-03-05T14:59:53;95218.06;;;5.28;63.29
72395;BME280;60384;48.152;11.614;2023-03-05T15:02:56;95217.44;;;5.31;63.98
72395;BME280;60384;48.152;11.614;2023-03-05T15:05:58;95212.53;;;5.24;63.56
72395;BME280;60384;48.152;11.614;2023-03-05T15:09:00;95217.66;;;5.21;63.40
72395;BME280;60384;48.152;11.614;2023-03-05T15:12:05;95217.38;;;5.22;63.74
72395;BME280;60384;48.152;11.614;2023-03-05T15:15:09;95214.22;;;5.20;63.67
72395;BME280;60384;48.152;11.614;2023-03-05T15:18:12;95218.72;;;5.20;63.76
72395;BME280;60384;48.152;11.614;2023-03-05T15:21:14;95218.72;;;5.20;63.76
72395;BME280;60384;48.152;11.614;2023-03-05T15:24:16;95213.75;;;5.18;63.76
72395;BME280;60384;48.152;11.614;2023-03-05T15:27:19;95205.69;;;5.10;63.24
72395;BME280;60384;48.152;11.614;2023-03-05T15:30:23;95207.91;;;5.03;63.80
72395;BME280;60384;48.152;11.614;2023-03-05T15:33:26;95202.16;;;5.01;63.56
72395;BME280;60384;48.152;11.614;2023-03-05T15:36:27;95195.75;;;5.02;63.66
72395;BME280;60384;48.152;11.614;2023-03-05T15:39:29;95196.25;;;5.04;63.46
72395;BME280;60384;48.152;11.614;2023-03-05T15:42:33;95198.72;;;5.00;63.84
72395;BME280;60384;48.152;11.614;2023-03-05T15:45:34;95194.00;;;4.97;63.81
72395;BME280;60384;48.152;11.614;2023-03-05T15:48:36;95185.66;;;4.90;63.73
72395;BME280;60384;48.152;11.614;2023-03-05T15:51:38;95188.69;;;4.83;63.69
72395;BME280;60384;48.152;11.614;2023-03-05T15:54:40;95186.16;;;4.78;63.79
72395;BME280;60384;48.152;11.614;2023-03-05T15:57:45;95189.34;;;4.75;63.78
72395;BME280;60384;48.152;11.614;2023-03-05T16:00:47;95184.16;;;4.70;63.82
72395;BME280;60384;48.152;11.614;2023-03-05T16:03:48;95190.00;;;4.67;63.56
72395;BME280;60384;48.152;11.614;2023-03-05T16:06:50;95181.88;;;4.64;63.71
72395;BME280;60384;48.152;11.614;2023-03-05T16:09:53;95171.41;;;4.58;63.57
72395;BME280;60384;48.152;11.614;2023-03-05T16:13:00;95160.81;;;4.58;63.92
72395;BME280;60384;48.152;11.614;2023-03-05T16:16:05;95153.38;;;4.61;63.93